sensor_id;sensor_type;location;lat;lon;timestamp;pressure;altitude;pressure_sealevel;temperature;humidity
21109;BME280;10712;52.944;9.098;2023-02-02T00:02:01;101289.31;;;13.58;47.73
21109;BME280;10712;52.944;9.098;2023-02-02T00:04:31;101289.41;;;13.70;47.60
21109;BME280;10712;52.944;9.098;2023-02-02T00:06:58;101295.06;;;13.80;47.42
21109;BME280;10712;52.944;9.098;2023-02-02T00:09:28;101303.19;;;13.64;47.77
21109;BME280;10712;52.944;9.098;2023-02-02T00:11:55;101289.31;;;13.86;47.47
21109;BME280;10712;52.944;9.098;2023-02-02T00:14:22;101295.91;;;13.95;47.26
21109;BME280;10712;52.944;9.098;2023-02-02T00:16:54;101299.84;;;13.75;47.80
21109;BME280;10712;52.944;9.098;2023-02-02T00:19:29;101297.56;;;13.69;48.09
21109;BME280;10712;52.944;9.098;2023-02-02T00:21:56;101287.59;;;13.85;47.60
21109;BME280;10712;52.944;9.098;2023-02-02T00:24:22;101299.94;;;13.73;47.88
21109;BME280;10712;52.944;9.098;2023-02-02T00:26:57;101295.22;;;13.91;47.58
21109;BME280;10712;52.944;9.098;2023-02-02T00:29:28;101288.19;;;13.76;48.06
21109;BME280;10712;52.944;9.098;2023-02-02T00:31:55;101289.31;;;13.58;48.43
21109;BME280;10712;52.944;9.098;2023-02-02T00:34:21;101297.72;;;13.52;48.49
21109;BME280;10712;52.944;9.098;2023-02-02T00:36:49;101289.72;;;13.80;47.91
21109;BME280;10712;52.944;9.098;2023-02-02T00:39:19;101293.91;;;13.70;47.76
21109;BME280;10712;52.944;9.098;2023-02-02T00:41:45;101289.13;;;13.47;48.23
21109;BME280;10712;52.944;9.098;2023-02-02T00:44:12;101286.47;;;13.47;47.92
21109;BME280;10712;52.944;9.098;2023-02-02T00:46:56;101291.59;;;13.64;47.26
21109;BME280;10712;52.944;9.098;2023-02-02T00:49:22;101292.31;;;13.67;47.28
21109;BME280;10712;52.944;9.098;2023-02-02T00:51:49;101297.56;;;13.69;47.10
21109;BME280;10712;52.944;9.098;2023-02-02T00:54:15;101314.59;;;13.82;47.08
21109;BME280;10712;52.944;9.098;2023-02-02T00:56:41;101309.63;;;13.76;46.91
21109;BME280;10712;52.944;9.098;2023-02-02T00:59:07;101315.53;;;13.67;47.31
21109;BME280;10712;52.944;9.098;2023-02-02T01:01:33;101316.97;;;13.58;47.27
21109;BME280;10712;52.944;9.098;2023-02-02T01:03:59;101321.06;;;13.64;47.18
21109;BME280;10712;52.944;9.098;2023-02-02T01:06:26;101329.94;;;13.50;47.80
21109;BME280;10712;52.944;9.098;2023-02-02T01:08:52;101331.66;;;13.51;47.95
21109;BME280;10712;52.944;9.098;2023-02-02T01:11:18;101321.28;;;13.17;48.54
21109;BME280;10712;52.944;9.098;2023-02-02T01:13:44;101339.78;;;13.50;48.12
21109;BME280;10712;52.944;9.098;2023-02-02T01:16:10;101338.47;;;13.57;47.78
21109;BME280;10712;52.944;9.098;2023-02-02T01:18:36;101339.06;;;13.62;47.86
21109;BME280;10712;52.944;9.098;2023-02-02T01:21:08;101345.44;;;13.59;47.82
21109;BME280;10712;52.944;9.098;2023-02-02T01:23:36;101353.16;;;13.50;48.04
21109;BME280;10712;52.944;9.098;2023-02-02T01:26:05;101351.19;;;13.53;48.10
21109;BME280;10712;52.944;9.098;2023-02-02T01:28:32;101358.88;;;13.29;48.44
21109;BME280;10712;52.944;9.098;2023-02-02T01:31:09;101358.97;;;13.42;48.27
21109;BME280;10712;52.944;9.098;2023-02-02T01:33:36;101365.78;;;13.33;48.51
21109;BME280;10712;52.944;9.098;2023-02-02T01:36:07;101356.56;;;13.08;49.15
21109;BME280;10712;52.944;9.098;2023-02-02T01:38:33;101368.22;;;13.22;48.92
21109;BME280;10712;52.944;9.098;2023-02-02T01:41:00;101365.19;;;13.43;48.35
21109;BME280;10712;52.944;9.098;2023-02-02T01:46:11;101370.13;;;13.20;48.94
21109;BME280;10712;52.944;9.098;2023-02-02T01:48:41;101374.38;;;13.38;48.50
21109;BME280;10712;52.944;9.098;2023-02-02T01:51:17;101385.25;;;13.35;48.71
21109;BME280;10712;52.944;9.098;2023-02-02T01:53:46;101377.78;;;13.26;49.11
21109;BME280;10712;52.944;9.098;2023-02-02T01:56:36;101385.81;;;13.26;49.20
21109;BME280;10712;52.944;9.098;2023-02-02T01:59:05;101386.41;;;13.31;49.39
21109;BME280;10712;52.944;9.098;2023-02-02T02:01:31;101390.19;;;13.13;49.67
21109;BME280;10712;52.944;9.098;2023-02-02T02:03:57;101385.63;;;13.29;49.52
21109;BME280;10712;52.944;9.098;2023-02-02T02:06:25;101388.66;;;13.23;49.98
21109;BME280;10712;52.944;9.098;2023-02-02T02:09:05;101399.38;;;13.23;49.90
21109;BME280;10712;52.944;9.098;2023-02-02T02:11:34;101389.00;;;13.33;49.74
21109;BME280;10712;52.944;9.098;2023-02-02T02:14:08;101397.38;;;13.27;49.87
21109;BME280;10712;52.944;9.098;2023-02-02T02:32:49;101407.94;;;13.14;50.18
21109;BME280;10712;52.944;9.098;2023-02-02T02:35:33;101410.34;;;13.19;50.09
21109;BME280;10712;52.944;9.098;2023-02-02T02:38:24;101413.09;;;13.17;50.11
21109;BME280;10712;52.944;9.098;2023-02-02T02:41:00;101427.28;;;13.19;50.14
21109;BME280;10712;52.944;9.098;2023-02-02T02:43:58;101432.97;;;13.13;49.93
21109;BME280;10712;52.944;9.098;2023-02-02T02:46:26;101428.78;;;13.08;50.11
21109;BME280;10712;52.944;9.098;2023-02-02T02:48:56;101417.94;;;12.79;50.58
21109;BME280;10712;52.944;9.098;2023-02-02T02:54:23;101429.50;;;12.95;50.33
21109;BME280;10712;52.944;9.098;2023-02-02T02:57:12;101437.09;;;13.03;49.93
21109;BME280;10712;52.944;9.098;2023-02-02T03:08:39;101456.41;;;13.08;50.22
21109;BME280;10712;52.944;9.098;2023-02-02T03:11:10;101452.63;;;12.96;50.48
21109;BME280;10712;52.944;9.098;2023-02-02T03:13:38;101460.22;;;13.04;50.37
21109;BME280;10712;52.944;9.098;2023-02-02T03:16:05;101452.97;;;13.06;50.42
21109;BME280;10712;52.944;9.098;2023-02-02T03:18:32;101465.13;;;12.96;50.71
21109;BME280;10712;52.944;9.098;2023-02-02T03:20:58;101468.84;;;13.09;50.45
21109;BME280;10712;52.944;9.098;2023-02-02T03:23:25;101463.41;;;12.95;50.73
21109;BME280;10712;52.944;9.098;2023-02-02T03:25:51;101467.03;;;12.94;50.77
21109;BME280;10712;52.944;9.098;2023-02-02T03:28:17;101471.06;;;13.01;50.17
21109;BME280;10712;52.944;9.098;2023-02-02T03:30:46;101472.13;;;12.83;50.62
21109;BME280;10712;52.944;9.098;2023-02-02T03:33:16;101474.69;;;13.00;50.49
21109;BME280;10712;52.944;9.098;2023-02-02T03:35:43;101481.44;;;12.91;50.77
21109;BME280;10712;52.944;9.098;2023-02-02T03:38:09;101485.84;;;12.92;50.72
21109;BME280;10712;52.944;9.098;2023-02-02T03:40:38;101484.56;;;12.84;50.76
21109;BME280;10712;52.944;9.098;2023-02-02T03:43:04;101492.50;;;12.85;50.85
21109;BME280;10712;52.944;9.098;2023-02-02T03:45:30;101487.66;;;12.92;50.57
21109;BME280;10712;52.944;9.098;2023-02-02T03:48:02;101492.56;;;12.84;50.80
21109;BME280;10712;52.944;9.098;2023-02-02T03:50:28;101491.53;;;12.86;50.84
21109;BME280;10712;52.944;9.098;2023-02-02T03:52:54;101494.81;;;12.91;50.59
21109;BME280;10712;52.944;9.098;2023-02-02T03:55:20;101488.25;;;12.81;50.90
21109;BME280;10712;52.944;9.098;2023-02-02T03:57:46;101494.03;;;12.74;51.04
21109;BME280;10712;52.944;9.098;2023-02-02T04:00:12;101501.97;;;12.75;51.16
21109;BME280;10712;52.944;9.098;2023-02-02T04:02:38;101495.75;;;12.75;51.08
21109;BME280;10712;52.944;9.098;2023-02-02T04:05:04;101513.19;;;12.82;51.08
21109;BME280;10712;52.944;9.098;2023-02-02T04:07:30;101504.72;;;12.74;51.37
21109;BME280;10712;52.944;9.098;2023-02-02T04:09:56;101512.13;;;12.69;51.58
21109;BME280;10712;52.944;9.098;2023-02-02T04:12:22;101518.75;;;12.61;51.77
21109;BME280;10712;52.944;9.098;2023-02-02T04:14:48;101530.78;;;12.70;51.62
21109;BME280;10712;52.944;9.098;2023-02-02T04:17:13;101529.13;;;12.68;51.54
21109;BME280;10712;52.944;9.098;2023-02-02T04:19:39;101535.59;;;12.63;51.78
21109;BME280;10712;52.944;9.098;2023-02-02T04:22:05;101532.72;;;12.67;51.75
21109;BME280;10712;52.944;9.098;2023-02-02T04:24:31;101528.84;;;12.56;52.15
21109;BME280;10712;52.944;9.098;2023-02-02T04:26:57;101532.91;;;12.63;51.95
21109;BME280;10712;52.944;9.098;2023-02-02T04:29:22;101533.84;;;12.62;51.74
21109;BME280;10712;52.944;9.098;2023-02-02T04:31:49;101537.81;;;12.55;51.87
21109;BME280;10712;52.944;9.098;2023-02-02T04:34:15;101537.63;;;12.58;51.89
21109;BME280;10712;52.944;9.098;2023-02-02T04:36:41;101546.75;;;12.54;51.73
21109;BME280;10712;52.944;9.098;2023-02-02T04:39:10;101540.63;;;12.52;51.70
21109;BME280;10712;52.944;9.098;2023-02-02T04:41:36;101549.50;;;12.53;51.95
21109;BME280;10712;52.944;9.098;2023-02-02T04:44:02;101552.59;;;12.45;52.18
21109;BME280;10712;52.944;9.098;2023-02-02T04:46:28;101556.84;;;12.49;52.13
21109;BME280;10712;52.944;9.098;2023-02-02T04:48:54;101552.44;;;12.48;52.11
21109;BME280;10712;52.944;9.098;2023-02-02T04:51:20;101545.81;;;12.55;51.97
21109;BME280;10712;52.944;9.098;2023-02-02T04:53:46;101556.59;;;12.54;52.06
21109;BME280;10712;52.944;9.098;2023-02-02T04:56:15;101548.84;;;12.49;52.22
21109;BME280;10712;52.944;9.098;2023-02-02T04:58:43;101543.97;;;12.40;52.32
21109;BME280;10712;52.944;9.098;2023-02-02T05:01:16;101543.47;;;12.49;52.20
21109;BME280;10712;52.944;9.098;2023-02-02T05:03:43;101548.50;;;12.55;51.89
21109;BME280;10712;52.944;9.098;2023-02-02T05:06:10;101545.22;;;12.50;51.80
21109;BME280;10712;52.944;9.098;2023-02-02T05:08:37;101553.66;;;12.58;51.85
21109;BME280;10712;52.944;9.098;2023-02-02T05:11:22;101555.72;;;12.53;51.85
21109;BME280;10712;52.944;9.098;2023-02-02T05:13:53;101554.00;;;12.52;52.31
21109;BME280;10712;52.944;9.098;2023-02-02T05:16:20;101555.72;;;12.53;52.30
21109;BME280;10712;52.944;9.098;2023-02-02T05:18:52;101555.41;;;12.59;52.20
21109;BME280;10712;52.944;9.098;2023-02-02T05:21:19;101555.56;;;12.56;52.29
21109;BME280;10712;52.944;9.098;2023-02-02T05:23:45;101563.34;;;12.61;52.17
21109;BME280;10712;52.944;9.098;2023-02-02T05:26:20;101564.81;;;12.67;51.91
21109;BME280;10712;52.944;9.098;2023-02-02T05:28:47;101566.09;;;12.59;51.96
21109;BME280;10712;52.944;9.098;2023-02-02T05:31:13;101577.50;;;12.63;51.85
21109;BME280;10712;52.944;9.098;2023-02-02T05:33:38;101579.72;;;12.55;52.04
21109;BME280;10712;52.944;9.098;2023-02-02T05:36:05;101584.03;;;12.57;51.80
21109;BME280;10712;52.944;9.098;2023-02-02T05:38:31;101586.84;;;12.54;51.91
21109;BME280;10712;52.944;9.098;2023-02-02T05:40:57;101585.59;;;12.61;51.77
21109;BME280;10712;52.944;9.098;2023-02-02T05:43:28;101587.47;;;12.59;51.64
21109;BME280;10712;52.944;9.098;2023-02-02T05:45:54;101594.63;;;12.59;51.69
21109;BME280;10712;52.944;9.098;2023-02-02T05:48:20;101599.44;;;12.52;52.00
21109;BME280;10712;52.944;9.098;2023-02-02T05:50:59;101591.75;;;12.46;51.95
21109;BME280;10712;52.944;9.098;2023-02-02T05:53:30;101603.28;;;12.47;51.94
21109;BME280;10712;52.944;9.098;2023-02-02T05:55:56;101603.84;;;12.53;51.61
21109;BME280;10712;52.944;9.098;2023-02-02T05:58:22;101604.78;;;12.52;51.86
21109;BME280;10712;52.944;9.098;2023-02-02T06:00:48;101600.56;;;12.48;51.93
21109;BME280;10712;52.944;9.098;2023-02-02T06:03:14;101602.28;;;12.49;51.82
21109;BME280;10712;52.944;9.098;2023-02-02T06:05:40;101606.03;;;12.45;51.80
21109;BME280;10712;52.944;9.098;2023-02-02T06:08:05;101617.59;;;12.46;51.91
21109;BME280;10712;52.944;9.098;2023-02-02T06:10:31;101608.56;;;12.48;51.74
21109;BME280;10712;52.944;9.098;2023-02-02T06:12:57;101614.72;;;12.50;51.89
21109;BME280;10712;52.944;9.098;2023-02-02T06:15:23;101612.25;;;12.46;51.88
21109;BME280;10712;52.944;9.098;2023-02-02T06:17:49;101615.03;;;12.44;51.90
21109;BME280;10712;52.944;9.098;2023-02-02T06:20:15;101618.13;;;12.52;51.78
21109;BME280;10712;52.944;9.098;2023-02-02T06:22:41;101620.91;;;12.51;51.89
21109;BME280;10712;52.944;9.098;2023-02-02T06:25:08;101620.19;;;12.47;52.00
21109;BME280;10712;52.944;9.098;2023-02-02T06:27:34;101623.66;;;12.49;51.95
21109;BME280;10712;52.944;9.098;2023-02-02T06:30:00;101629.00;;;12.49;52.16
21109;BME280;10712;52.944;9.098;2023-02-02T06:32:31;101635.91;;;12.53;51.92
21109;BME280;10712;52.944;9.098;2023-02-02T06:34:57;101638.97;;;12.46;52.34
21109;BME280;10712;52.944;9.098;2023-02-02T06:37:23;101636.22;;;12.47;52.52
21109;BME280;10712;52.944;9.098;2023-02-02T06:39:49;101637.66;;;12.54;52.24
21109;BME280;10712;52.944;9.098;2023-02-02T06:42:14;101645.19;;;12.46;52.64
21109;BME280;10712;52.944;9.098;2023-02-02T06:44:40;101644.72;;;12.55;52.44
21109;BME280;10712;52.944;9.098;2023-02-02T06:47:06;101648.34;;;12.54;52.43
21109;BME280;10712;52.944;9.098;2023-02-02T06:49:32;101653.53;;;12.57;52.46
21109;BME280;10712;52.944;9.098;2023-02-02T06:51:58;101653.97;;;12.66;52.59
21109;BME280;10712;52.944;9.098;2023-02-02T06:54:24;101655.56;;;12.52;52.90
21109;BME280;10712;52.944;9.098;2023-02-02T06:56:50;101649.28;;;12.53;53.14
21109;BME280;10712;52.944;9.098;2023-02-02T06:59:15;101652.66;;;12.57;52.93
21109;BME280;10712;52.944;9.098;2023-02-02T07:01:41;101658.09;;;12.55;53.10
21109;BME280;10712;52.944;9.098;2023-02-02T07:04:07;101660.91;;;12.52;53.04
21109;BME280;10712;52.944;9.098;2023-02-02T07:06:33;101671.78;;;12.49;53.25
21109;BME280;10712;52.944;9.098;2023-02-02T07:08:59;101665.63;;;12.47;53.44
21109;BME280;10712;52.944;9.098;2023-02-02T07:11:25;101672.09;;;12.43;53.64
21109;BME280;10712;52.944;9.098;2023-02-02T07:13:51;101674.28;;;12.52;53.50
21109;BME280;10712;52.944;9.098;2023-02-02T07:16:17;101676.94;;;12.52;53.22
21109;BME280;10712;52.944;9.098;2023-02-02T07:18:43;101684.03;;;12.53;53.38
21109;BME280;10712;52.944;9.098;2023-02-02T07:21:20;101685.22;;;12.48;53.36
21109;BME280;10712;52.944;9.098;2023-02-02T07:23:46;101681.84;;;12.44;53.48
21109;BME280;10712;52.944;9.098;2023-02-02T07:26:16;101689.88;;;12.44;53.45
21109;BME280;10712;52.944;9.098;2023-02-02T07:28:42;101695.03;;;12.47;53.49
21109;BME280;10712;52.944;9.098;2023-02-02T07:31:24;101698.66;;;12.46;53.83
21109;BME280;10712;52.944;9.098;2023-02-02T07:33:52;101692.44;;;12.46;53.65
21109;BME280;10712;52.944;9.098;2023-02-02T07:36:21;101694.09;;;12.48;53.60
21109;BME280;10712;52.944;9.098;2023-02-02T07:38:51;101696.75;;;12.48;53.60
21109;BME280;10712;52.944;9.098;2023-02-02T07:41:22;101698.56;;;12.48;53.71
21109;BME280;10712;52.944;9.098;2023-02-02T07:43:48;101702.13;;;12.48;53.77
21109;BME280;10712;52.944;9.098;2023-02-02T07:46:16;101702.13;;;12.48;53.75
21109;BME280;10712;52.944;9.098;2023-02-02T07:48:42;101709.03;;;12.52;53.82
21109;BME280;10712;52.944;9.098;2023-02-02T07:51:13;101710.75;;;12.53;53.68
21109;BME280;10712;52.944;9.098;2023-02-02T07:53:44;101710.75;;;12.53;53.90
21109;BME280;10712;52.944;9.098;2023-02-02T07:56:13;101714.22;;;12.55;53.86
21109;BME280;10712;52.944;9.098;2023-02-02T07:58:40;101717.50;;;12.60;53.75
21109;BME280;10712;52.944;9.098;2023-02-02T08:01:13;101724.75;;;12.58;54.08
21109;BME280;10712;52.944;9.098;2023-02-02T08:03:41;101736.31;;;12.59;54.17
21109;BME280;10712;52.944;9.098;2023-02-02T08:06:30;101740.63;;;12.61;54.23
21109;BME280;10712;52.944;9.098;2023-02-02T08:08:58;101752.91;;;12.66;54.17
21109;BME280;10712;52.944;9.098;2023-02-02T08:11:26;101745.66;;;12.68;54.25
21109;BME280;10712;52.944;9.098;2023-02-02T08:14:00;101753.63;;;12.69;54.77
21109;BME280;10712;52.944;9.098;2023-02-02T08:16:28;101763.31;;;12.72;54.66
21109;BME280;10712;52.944;9.098;2023-02-02T08:18:55;101763.94;;;12.77;54.64
21109;BME280;10712;52.944;9.098;2023-02-02T08:21:21;101771.94;;;12.77;54.75
21109;BME280;10712;52.944;9.098;2023-02-02T08:23:47;101771.78;;;12.80;54.59
21109;BME280;10712;52.944;9.098;2023-02-02T08:26:25;101769.97;;;12.80;54.95
21109;BME280;10712;52.944;9.098;2023-02-02T08:28:57;101776.13;;;12.82;54.81
21109;BME280;10712;52.944;9.098;2023-02-02T08:31:44;101775.09;;;12.85;54.92
21109;BME280;10712;52.944;9.098;2023-02-02T08:34:11;101780.13;;;12.91;54.83
21109;BME280;10712;52.944;9.098;2023-02-02T08:36:38;101780.81;;;12.94;54.88
21109;BME280;10712;52.944;9.098;2023-02-02T08:39:09;101787.84;;;12.97;54.85
21109;BME280;10712;52.944;9.098;2023-02-02T08:41:36;101785.72;;;13.03;54.75
21109;BME280;10712;52.944;9.098;2023-02-02T08:44:08;101791.94;;;13.04;54.83
21109;BME280;10712;52.944;9.098;2023-02-02T08:46:34;101797.28;;;13.04;55.08
21109;BME280;10712;52.944;9.098;2023-02-02T08:49:00;101798.69;;;13.11;54.69
21109;BME280;10712;52.944;9.098;2023-02-02T08:51:26;101798.66;;;13.13;54.94
21109;BME280;10712;52.944;9.098;2023-02-02T08:53:52;101804.63;;;13.18;55.01
21109;BME280;10712;52.944;9.098;2023-02-02T08:56:20;101806.19;;;13.22;54.50
21109;BME280;10712;52.944;9.098;2023-02-02T09:01:24;101816.47;;;13.29;54.75
21109;BME280;10712;52.944;9.098;2023-02-02T09:04:00;101819.88;;;13.33;54.68
21109;BME280;10712;52.944;9.098;2023-02-02T09:06:44;101827.84;;;13.34;54.66
21109;BME280;10712;52.944;9.098;2023-02-02T09:09:14;101822.47;;;13.34;54.56
21109;BME280;10712;52.944;9.098;2023-02-02T09:11:41;101828.53;;;13.38;54.76
21109;BME280;10712;52.944;9.098;2023-02-02T09:14:08;101823.09;;;13.39;54.47
21109;BME280;10712;52.944;9.098;2023-02-02T09:16:35;101825.59;;;13.43;54.43
21109;BME280;10712;52.944;9.098;2023-02-02T09:19:01;101830.47;;;13.52;54.29
21109;BME280;10712;52.944;9.098;2023-02-02T09:21:27;101836.84;;;13.49;54.33
21109;BME280;10712;52.944;9.098;2023-02-02T09:23:53;101839.28;;;13.54;54.16
21109;BME280;10712;52.944;9.098;2023-02-02T09:26:25;101836.28;;;13.60;54.13
21109;BME280;10712;52.944;9.098;2023-02-02T09:28:57;101840.69;;;13.61;54.16
21109;BME280;10712;52.944;9.098;2023-02-02T09:31:25;101837.09;;;13.62;54.05
21109;BME280;10712;52.944;9.098;2023-02-02T09:33:51;101835.16;;;13.64;54.00
21109;BME280;10712;52.944;9.098;2023-02-02T09:36:21;101842.19;;;13.66;54.05
21109;BME280;10712;52.944;9.098;2023-02-02T09:38:48;101850.75;;;13.73;54.02
21109;BME280;10712;52.944;9.098;2023-02-02T09:48:08;101861.72;;;13.84;53.88
21109;BME280;10712;52.944;9.098;2023-02-02T09:50:52;101857.69;;;13.93;53.43
21109;BME280;10712;52.944;9.098;2023-02-02T09:53:44;101862.13;;;13.94;53.66
21109;BME280;10712;52.944;9.098;2023-02-02T09:56:23;101865.59;;;13.96;53.60
21109;BME280;10712;52.944;9.098;2023-02-02T09:58:55;101866.88;;;14.04;53.12
21109;BME280;10712;52.944;9.098;2023-02-02T10:01:30;101881.78;;;14.10;53.20
21109;BME280;10712;52.944;9.098;2023-02-02T10:06:50;101877.19;;;14.12;53.05
21109;BME280;10712;52.944;9.098;2023-02-02T10:12:59;101895.19;;;14.10;53.02
21109;BME280;10712;52.944;9.098;2023-02-02T10:15:45;101884.72;;;14.21;52.92
21109;BME280;10712;52.944;9.098;2023-02-02T10:18:40;101890.00;;;14.23;52.59
21109;BME280;10712;52.944;9.098;2023-02-02T10:21:22;101904.16;;;14.25;52.68
21109;BME280;10712;52.944;9.098;2023-02-02T10:23:51;101905.03;;;14.25;52.48
21109;BME280;10712;52.944;9.098;2023-02-02T10:26:38;101906.41;;;14.16;52.57
21109;BME280;10712;52.944;9.098;2023-02-02T10:35:26;101905.16;;;14.39;51.97
21109;BME280;10712;52.944;9.098;2023-02-02T10:41:13;101913.13;;;14.41;51.49
21109;BME280;10712;52.944;9.098;2023-02-02T10:46:52;101926.47;;;14.58;51.50
21109;BME280;10712;52.944;9.098;2023-02-02T10:49:32;101937.00;;;14.61;51.25
21109;BME280;10712;52.944;9.098;2023-02-02T10:52:17;101934.19;;;14.64;50.95
21109;BME280;10712;52.944;9.098;2023-02-02T10:55:46;101947.22;;;14.70;50.92
21109;BME280;10712;52.944;9.098;2023-02-02T10:58:28;101950.25;;;14.80;50.84
21109;BME280;10712;52.944;9.098;2023-02-02T11:00:57;101951.91;;;14.82;50.94
21109;BME280;10712;52.944;9.098;2023-02-02T11:03:31;101940.91;;;14.87;50.85
21109;BME280;10712;52.944;9.098;2023-02-02T11:06:03;101943.69;;;14.85;50.70
21109;BME280;10712;52.944;9.098;2023-02-02T11:08:52;101951.53;;;14.88;50.84
21109;BME280;10712;52.944;9.098;2023-02-02T11:11:38;101954.78;;;14.79;51.09
21109;BME280;10712;52.944;9.098;2023-02-02T11:16:42;101958.50;;;14.92;50.83
21109;BME280;10712;52.944;9.098;2023-02-02T11:21:53;101952.56;;;15.02;50.31
21109;BME280;10712;52.944;9.098;2023-02-02T11:24:27;101959.69;;;15.03;50.54
21109;BME280;10712;52.944;9.098;2023-02-02T11:27:03;101961.25;;;15.07;50.03
21109;BME280;10712;52.944;9.098;2023-02-02T11:35:14;101960.81;;;15.14;50.35
21109;BME280;10712;52.944;9.098;2023-02-02T11:38:14;101957.25;;;15.14;50.84
21109;BME280;10712;52.944;9.098;2023-02-02T11:40:44;101949.97;;;15.16;50.48
21109;BME280;10712;52.944;9.098;2023-02-02T11:43:38;101959.94;;;15.14;50.25
21109;BME280;10712;52.944;9.098;2023-02-02T11:46:18;101961.06;;;15.10;50.21
21109;BME280;10712;52.944;9.098;2023-02-02T11:49:00;101971.78;;;15.10;50.45
21109;BME280;10712;52.944;9.098;2023-02-02T11:51:29;101975.25;;;15.12;50.64
21109;BME280;10712;52.944;9.098;2023-02-02T11:54:21;101971.97;;;15.07;50.72
21109;BME280;10712;52.944;9.098;2023-02-02T11:56:52;101968.16;;;15.11;50.63
21109;BME280;10712;52.944;9.098;2023-02-02T11:59:42;101966.41;;;15.10;50.59
21109;BME280;10712;52.944;9.098;2023-02-02T12:04:39;101968.38;;;15.22;50.98
21109;BME280;10712;52.944;9.098;2023-02-02T12:09:46;101970.47;;;15.32;50.22
21109;BME280;10712;52.944;9.098;2023-02-02T12:12:55;101969.75;;;15.29;50.07
21109;BME280;10712;52.944;9.098;2023-02-02T12:15:51;101975.91;;;15.31;50.13
21109;BME280;10712;52.944;9.098;2023-02-02T12:21:23;101969.00;;;15.27;49.83
21109;BME280;10712;52.944;9.098;2023-02-02T12:24:12;101961.91;;;15.26;49.92
21109;BME280;10712;52.944;9.098;2023-02-02T12:26:49;101964.50;;;15.27;50.28
21109;BME280;10712;52.944;9.098;2023-02-02T12:30:02;101959.22;;;15.26;50.39
21109;BME280;10712;52.944;9.098;2023-02-02T12:35:47;101969.00;;;15.27;50.35
21109;BME280;10712;52.944;9.098;2023-02-02T12:53:23;101969.88;;;15.12;50.39
21109;BME280;10712;52.944;9.098;2023-02-02T13:01:49;101966.06;;;15.16;50.32
21109;BME280;10712;52.944;9.098;2023-02-02T13:10:36;101956.69;;;15.23;50.33
21109;BME280;10712;52.944;9.098;2023-02-02T13:13:30;101954.63;;;15.28;50.33
21109;BME280;10712;52.944;9.098;2023-02-02T13:16:05;101967.50;;;15.37;50.33
21109;BME280;10712;52.944;9.098;2023-02-02T13:18:50;101968.81;;;15.30;50.28
21109;BME280;10712;52.944;9.098;2023-02-02T13:21:22;101969.66;;;15.46;49.93
21109;BME280;10712;52.944;9.098;2023-02-02T13:23:52;101968.78;;;15.46;50.10
21109;BME280;10712;52.944;9.098;2023-02-02T13:26:28;101965.47;;;15.56;50.03
21109;BME280;10712;52.944;9.098;2023-02-02T13:31:47;101969.44;;;15.49;49.74
21109;BME280;10712;52.944;9.098;2023-02-02T13:37:33;101972.06;;;15.51;49.75
21109;BME280;10712;52.944;9.098;2023-02-02T13:40:39;101980.97;;;15.51;49.73
21109;BME280;10712;52.944;9.098;2023-02-02T13:46:00;101973.13;;;15.48;49.81
21109;BME280;10712;52.944;9.098;2023-02-02T13:54:34;101987.16;;;15.53;49.69
21109;BME280;10712;52.944;9.098;2023-02-02T14:00:22;101985.47;;;15.51;49.63
21109;BME280;10712;52.944;9.098;2023-02-02T14:03:34;101974.81;;;15.49;49.50
21109;BME280;10712;52.944;9.098;2023-02-02T14:08:30;101994.78;;;15.45;49.35
21109;BME280;10712;52.944;9.098;2023-02-02T14:11:00;101999.28;;;15.45;49.25
21109;BME280;10712;52.944;9.098;2023-02-02T14:13:49;102003.97;;;15.41;49.24
21109;BME280;10712;52.944;9.098;2023-02-02T14:19:05;102012.97;;;15.40;49.05
21109;BME280;10712;52.944;9.098;2023-02-02T14:37:46;102001.91;;;15.30;49.00
21109;BME280;10712;52.944;9.098;2023-02-02T14:43:18;102001.53;;;15.36;48.97
21109;BME280;10712;52.944;9.098;2023-02-02T14:48:46;102007.97;;;15.34;49.06
21109;BME280;10712;52.944;9.098;2023-02-02T14:51:19;102010.66;;;15.34;49.07
21109;BME280;10712;52.944;9.098;2023-02-02T14:53:55;102018.72;;;15.34;49.29
21109;BME280;10712;52.944;9.098;2023-02-02T14:56:47;102022.34;;;15.33;49.14
21109;BME280;10712;52.944;9.098;2023-02-02T14:59:38;102029.47;;;15.34;49.20
21109;BME280;10712;52.944;9.098;2023-02-02T15:04:38;102031.50;;;15.29;49.20
21109;BME280;10712;52.944;9.098;2023-02-02T15:09:51;102038.03;;;15.25;49.51
21109;BME280;10712;52.944;9.098;2023-02-02T15:15:24;102050.75;;;15.21;49.44
21109;BME280;10712;52.944;9.098;2023-02-02T15:18:31;102047.47;;;15.16;49.46
21109;BME280;10712;52.944;9.098;2023-02-02T15:21:06;102045.72;;;15.15;49.60
21109;BME280;10712;52.944;9.098;2023-02-02T15:23:42;102045.72;;;15.15;49.45
21109;BME280;10712;52.944;9.098;2023-02-02T15:26:25;102050.22;;;15.15;49.47
21109;BME280;10712;52.944;9.098;2023-02-02T15:29:01;102047.66;;;15.13;49.47
21109;BME280;10712;52.944;9.098;2023-02-02T15:31:39;102054.13;;;15.09;49.51
21109;BME280;10712;52.944;9.098;2023-02-02T15:34:52;102052.50;;;15.07;49.65
21109;BME280;10712;52.944;9.098;2023-02-02T15:37:39;102055.34;;;15.04;49.52
21109;BME280;10712;52.944;9.098;2023-02-02T15:40:15;102067.03;;;15.03;49.59
21109;BME280;10712;52.944;9.098;2023-02-02T15:42:56;102070.78;;;15.00;49.62
21109;BME280;10712;52.944;9.098;2023-02-02T15:45:47;102082.59;;;14.96;49.68
21109;BME280;10712;52.944;9.098;2023-02-02T15:48:32;102085.38;;;14.94;49.89
21109;BME280;10712;52.944;9.098;2023-02-02T15:51:15;102076.56;;;14.92;49.72
21109;BME280;10712;52.944;9.098;2023-02-02T15:56:39;102089.03;;;14.93;49.62
21109;BME280;10712;52.944;9.098;2023-02-02T15:59:20;102093.75;;;14.88;49.41
21109;BME280;10712;52.944;9.098;2023-02-02T16:02:14;102094.72;;;14.87;49.86